sensor_id;sensor_type;location;lat;lon;timestamp;P1;durP1;ratioP1;P2;durP2;ratioP2
74291;SDS011;62687;55.738;37.516;2023-07-16T00:00:27;12.50;;;5.93;;
74291;SDS011;62687;55.738;37.516;2023-07-16T00:03:11;19.13;;;10.45;;
74291;SDS011;62687;55.738;37.516;2023-07-16T00:05:57;21.80;;;11.68;;
74291;SDS011;62687;55.738;37.516;2023-07-16T00:08:41;18.35;;;10.52;;
74291;SDS011;62687;55.738;37.516;2023-07-16T00:11:25;9.60;;;6.28;;
74291;SDS011;62687;55.738;37.516;2023-07-16T00:14:10;10.70;;;5.68;;
74291;SDS011;62687;55.738;37.516;2023-07-16T00:16:54;23.17;;;9.70;;
74291;SDS011;62687;55.738;37.516;2023-07-16T00:19:38;22.38;;;10.55;;
74291;SDS011;62687;55.738;37.516;2023-07-16T00:22:22;9.60;;;5.00;;
74291;SDS011;62687;55.738;37.516;2023-07-16T00:25:06;9.93;;;4.82;;
74291;SDS011;62687;55.738;37.516;2023-07-16T00:27:50;9.85;;;5.55;;
74291;SDS011;62687;55.738;37.516;2023-07-16T00:30:34;9.13;;;4.90;;
74291;SDS011;62687;55.738;37.516;2023-07-16T00:33:18;9.07;;;4.80;;
74291;SDS011;62687;55.738;37.516;2023-07-16T00:36:02;8.13;;;4.93;;
74291;SDS011;62687;55.738;37.516;2023-07-16T00:38:46;8.52;;;5.13;;
74291;SDS011;62687;55.738;37.516;2023-07-16T00:41:30;11.10;;;5.03;;
74291;SDS011;62687;55.738;37.516;2023-07-16T00:44:14;10.27;;;5.25;;
74291;SDS011;62687;55.738;37.516;2023-07-16T00:46:58;8.80;;;5.00;;
74291;SDS011;62687;55.738;37.516;2023-07-16T00:49:42;10.35;;;5.07;;
74291;SDS011;62687;55.738;37.516;2023-07-16T00:52:26;7.60;;;5.00;;
74291;SDS011;62687;55.738;37.516;2023-07-16T00:55:11;9.50;;;4.78;;
74291;SDS011;62687;55.738;37.516;2023-07-16T00:57:57;8.13;;;4.80;;
74291;SDS011;62687;55.738;37.516;2023-07-16T01:00:43;6.78;;;4.78;;
74291;SDS011;62687;55.738;37.516;2023-07-16T01:03:27;9.40;;;4.88;;
74291;SDS011;62687;55.738;37.516;2023-07-16T01:06:16;7.40;;;4.68;;
74291;SDS011;62687;55.738;37.516;2023-07-16T01:09:20;10.70;;;4.78;;
74291;SDS011;62687;55.738;37.516;2023-07-16T01:12:04;8.52;;;4.60;;
74291;SDS011;62687;55.738;37.516;2023-07-16T01:14:49;8.68;;;5.05;;
74291;SDS011;62687;55.738;37.516;2023-07-16T01:17:34;10.57;;;5.00;;
74291;SDS011;62687;55.738;37.516;2023-07-16T01:20:18;6.47;;;4.82;;
74291;SDS011;62687;55.738;37.516;2023-07-16T01:23:15;7.85;;;4.68;;
74291;SDS011;62687;55.738;37.516;2023-07-16T01:26:05;11.30;;;4.72;;
74291;SDS011;62687;55.738;37.516;2023-07-16T01:31:53;6.68;;;4.80;;
74291;SDS011;62687;55.738;37.516;2023-07-16T01:34:38;6.80;;;4.47;;
74291;SDS011;62687;55.738;37.516;2023-07-16T01:37:23;8.00;;;5.43;;
74291;SDS011;62687;55.738;37.516;2023-07-16T01:40:07;6.63;;;4.80;;
74291;SDS011;62687;55.738;37.516;2023-07-16T01:42:52;10.10;;;4.53;;
74291;SDS011;62687;55.738;37.516;2023-07-16T01:51:08;10.38;;;4.25;;
74291;SDS011;62687;55.738;37.516;2023-07-16T01:53:53;8.55;;;4.68;;
74291;SDS011;62687;55.738;37.516;2023-07-16T01:56:37;7.05;;;4.20;;
74291;SDS011;62687;55.738;37.516;2023-07-16T01:59:22;8.57;;;4.30;;
74291;SDS011;62687;55.738;37.516;2023-07-16T02:02:08;10.98;;;5.30;;
74291;SDS011;62687;55.738;37.516;2023-07-16T02:04:53;6.47;;;4.95;;
74291;SDS011;62687;55.738;37.516;2023-07-16T02:10:22;7.63;;;4.80;;
74291;SDS011;62687;55.738;37.516;2023-07-16T02:13:07;8.55;;;4.63;;
74291;SDS011;62687;55.738;37.516;2023-07-16T02:15:52;9.07;;;4.32;;
74291;SDS011;62687;55.738;37.516;2023-07-16T02:18:38;10.88;;;4.35;;
74291;SDS011;62687;55.738;37.516;2023-07-16T02:24:07;8.70;;;5.00;;
74291;SDS011;62687;55.738;37.516;2023-07-16T02:26:53;11.52;;;4.72;;
74291;SDS011;62687;55.738;37.516;2023-07-16T02:29:38;8.35;;;4.85;;
74291;SDS011;62687;55.738;37.516;2023-07-16T02:32:22;9.52;;;4.97;;
74291;SDS011;62687;55.738;37.516;2023-07-16T02:35:08;8.95;;;5.45;;
74291;SDS011;62687;55.738;37.516;2023-07-16T02:37:52;10.73;;;4.65;;
74291;SDS011;62687;55.738;37.516;2023-07-16T02:43:22;7.22;;;4.30;;
74291;SDS011;62687;55.738;37.516;2023-07-16T02:48:51;11.13;;;4.90;;
74291;SDS011;62687;55.738;37.516;2023-07-16T02:51:35;9.27;;;4.95;;
74291;SDS011;62687;55.738;37.516;2023-07-16T02:54:19;8.00;;;4.72;;
74291;SDS011;62687;55.738;37.516;2023-07-16T02:57:03;6.63;;;3.97;;
74291;SDS011;62687;55.738;37.516;2023-07-16T02:59:48;6.30;;;4.78;;
74291;SDS011;62687;55.738;37.516;2023-07-16T03:02:31;8.35;;;4.80;;
74291;SDS011;62687;55.738;37.516;2023-07-16T03:05:16;6.80;;;4.50;;
74291;SDS011;62687;55.738;37.516;2023-07-16T03:08:00;9.60;;;4.85;;
74291;SDS011;62687;55.738;37.516;2023-07-16T03:10:44;7.35;;;4.65;;
74291;SDS011;62687;55.738;37.516;2023-07-16T03:13:28;8.13;;;4.35;;
74291;SDS011;62687;55.738;37.516;2023-07-16T03:16:12;6.90;;;4.60;;
74291;SDS011;62687;55.738;37.516;2023-07-16T03:18:56;7.18;;;4.40;;
74291;SDS011;62687;55.738;37.516;2023-07-16T03:21:40;7.10;;;4.93;;
74291;SDS011;62687;55.738;37.516;2023-07-16T03:24:24;9.23;;;4.03;;
74291;SDS011;62687;55.738;37.516;2023-07-16T03:27:08;8.00;;;4.63;;
74291;SDS011;62687;55.738;37.516;2023-07-16T03:29:52;6.45;;;4.50;;
74291;SDS011;62687;55.738;37.516;2023-07-16T03:32:36;8.25;;;4.45;;
74291;SDS011;62687;55.738;37.516;2023-07-16T03:35:20;6.78;;;4.30;;
74291;SDS011;62687;55.738;37.516;2023-07-16T03:38:04;6.57;;;4.20;;
74291;SDS011;62687;55.738;37.516;2023-07-16T03:40:48;5.85;;;4.40;;
74291;SDS011;62687;55.738;37.516;2023-07-16T03:43:32;8.35;;;4.22;;
74291;SDS011;62687;55.738;37.516;2023-07-16T03:46:16;8.45;;;4.18;;
74291;SDS011;62687;55.738;37.516;2023-07-16T03:49:00;7.25;;;4.07;;
74291;SDS011;62687;55.738;37.516;2023-07-16T03:51:44;10.75;;;4.57;;
74291;SDS011;62687;55.738;37.516;2023-07-16T03:54:28;7.20;;;4.47;;
74291;SDS011;62687;55.738;37.516;2023-07-16T03:57:12;6.50;;;4.35;;
74291;SDS011;62687;55.738;37.516;2023-07-16T03:59:56;7.45;;;4.35;;
74291;SDS011;62687;55.738;37.516;2023-07-16T04:02:40;7.15;;;4.43;;
74291;SDS011;62687;55.738;37.516;2023-07-16T04:05:23;8.18;;;4.63;;
74291;SDS011;62687;55.738;37.516;2023-07-16T04:08:07;6.07;;;4.10;;
74291;SDS011;62687;55.738;37.516;2023-07-16T04:10:52;9.27;;;4.63;;
74291;SDS011;62687;55.738;37.516;2023-07-16T04:13:36;8.85;;;4.32;;
74291;SDS011;62687;55.738;37.516;2023-07-16T04:16:20;6.38;;;4.38;;
74291;SDS011;62687;55.738;37.516;2023-07-16T04:19:04;7.10;;;4.82;;
74291;SDS011;62687;55.738;37.516;2023-07-16T04:21:48;10.43;;;4.90;;
74291;SDS011;62687;55.738;37.516;2023-07-16T04:24:32;7.22;;;4.50;;
74291;SDS011;62687;55.738;37.516;2023-07-16T04:27:16;9.10;;;5.03;;
74291;SDS011;62687;55.738;37.516;2023-07-16T04:30:00;7.47;;;4.85;;
74291;SDS011;62687;55.738;37.516;2023-07-16T04:32:44;7.47;;;4.97;;
74291;SDS011;62687;55.738;37.516;2023-07-16T04:35:28;6.47;;;4.45;;
74291;SDS011;62687;55.738;37.516;2023-07-16T04:38:12;5.82;;;4.57;;
74291;SDS011;62687;55.738;37.516;2023-07-16T04:40:56;9.27;;;5.13;;
74291;SDS011;62687;55.738;37.516;2023-07-16T04:43:40;7.60;;;5.22;;
74291;SDS011;62687;55.738;37.516;2023-07-16T04:46:24;8.07;;;5.07;;
74291;SDS011;62687;55.738;37.516;2023-07-16T04:49:08;8.18;;;5.20;;
74291;SDS011;62687;55.738;37.516;2023-07-16T04:51:52;7.40;;;5.07;;
74291;SDS011;62687;55.738;37.516;2023-07-16T04:54:36;10.60;;;4.90;;
74291;SDS011;62687;55.738;37.516;2023-07-16T05:00:05;6.07;;;4.85;;
74291;SDS011;62687;55.738;37.516;2023-07-16T05:02:49;10.45;;;5.40;;
74291;SDS011;62687;55.738;37.516;2023-07-16T05:05:33;10.02;;;5.38;;
74291;SDS011;62687;55.738;37.516;2023-07-16T05:08:18;11.15;;;5.70;;
74291;SDS011;62687;55.738;37.516;2023-07-16T05:11:02;9.70;;;5.30;;
74291;SDS011;62687;55.738;37.516;2023-07-16T05:13:46;7.05;;;5.07;;
74291;SDS011;62687;55.738;37.516;2023-07-16T05:16:30;8.93;;;5.72;;
74291;SDS011;62687;55.738;37.516;2023-07-16T05:19:14;7.13;;;5.70;;
74291;SDS011;62687;55.738;37.516;2023-07-16T05:21:58;6.35;;;5.18;;
74291;SDS011;62687;55.738;37.516;2023-07-16T05:24:42;7.28;;;5.05;;
74291;SDS011;62687;55.738;37.516;2023-07-16T05:27:26;8.52;;;5.90;;
74291;SDS011;62687;55.738;37.516;2023-07-16T05:30:10;10.32;;;5.40;;
74291;SDS011;62687;55.738;37.516;2023-07-16T05:32:54;7.35;;;5.35;;
74291;SDS011;62687;55.738;37.516;2023-07-16T05:35:38;8.20;;;5.10;;
74291;SDS011;62687;55.738;37.516;2023-07-16T05:38:22;9.55;;;4.95;;
74291;SDS011;62687;55.738;37.516;2023-07-16T05:41:06;8.85;;;5.60;;
74291;SDS011;62687;55.738;37.516;2023-07-16T05:43:50;9.80;;;5.50;;
74291;SDS011;62687;55.738;37.516;2023-07-16T05:46:34;8.30;;;5.05;;
74291;SDS011;62687;55.738;37.516;2023-07-16T05:49:18;8.02;;;5.45;;
74291;SDS011;62687;55.738;37.516;2023-07-16T05:52:02;7.82;;;5.35;;
74291;SDS011;62687;55.738;37.516;2023-07-16T05:54:47;7.57;;;4.97;;
74291;SDS011;62687;55.738;37.516;2023-07-16T05:57:31;9.85;;;5.55;;
74291;SDS011;62687;55.738;37.516;2023-07-16T06:00:15;9.80;;;5.47;;
74291;SDS011;62687;55.738;37.516;2023-07-16T06:02:59;8.70;;;4.93;;
74291;SDS011;62687;55.738;37.516;2023-07-16T06:05:43;9.77;;;5.07;;
74291;SDS011;62687;55.738;37.516;2023-07-16T06:08:27;10.15;;;5.43;;
74291;SDS011;62687;55.738;37.516;2023-07-16T06:11:11;7.65;;;4.90;;
74291;SDS011;62687;55.738;37.516;2023-07-16T06:13:55;9.18;;;5.18;;
74291;SDS011;62687;55.738;37.516;2023-07-16T06:16:39;10.73;;;5.95;;
74291;SDS011;62687;55.738;37.516;2023-07-16T06:19:23;6.68;;;4.63;;
74291;SDS011;62687;55.738;37.516;2023-07-16T06:22:07;10.57;;;5.10;;
74291;SDS011;62687;55.738;37.516;2023-07-16T06:24:52;12.45;;;5.22;;
74291;SDS011;62687;55.738;37.516;2023-07-16T06:27:36;8.05;;;4.78;;
74291;SDS011;62687;55.738;37.516;2023-07-16T06:30:20;6.63;;;4.35;;
74291;SDS011;62687;55.738;37.516;2023-07-16T06:33:07;9.75;;;5.35;;
74291;SDS011;62687;55.738;37.516;2023-07-16T06:35:51;11.48;;;5.65;;
74291;SDS011;62687;55.738;37.516;2023-07-16T06:38:35;7.30;;;5.50;;
74291;SDS011;62687;55.738;37.516;2023-07-16T06:41:19;7.72;;;5.32;;
74291;SDS011;62687;55.738;37.516;2023-07-16T06:44:03;10.10;;;5.20;;
74291;SDS011;62687;55.738;37.516;2023-07-16T06:46:47;13.10;;;5.20;;
74291;SDS011;62687;55.738;37.516;2023-07-16T06:49:32;11.27;;;5.00;;
74291;SDS011;62687;55.738;37.516;2023-07-16T06:52:19;6.78;;;4.68;;
74291;SDS011;62687;55.738;37.516;2023-07-16T06:55:04;9.35;;;5.15;;
74291;SDS011;62687;55.738;37.516;2023-07-16T06:57:48;10.57;;;4.50;;
74291;SDS011;62687;55.738;37.516;2023-07-16T07:00:34;8.07;;;4.57;;
74291;SDS011;62687;55.738;37.516;2023-07-16T07:06:36;11.13;;;4.72;;
74291;SDS011;62687;55.738;37.516;2023-07-16T07:09:28;7.28;;;5.03;;
74291;SDS011;62687;55.738;37.516;2023-07-16T07:12:23;10.20;;;4.50;;
74291;SDS011;62687;55.738;37.516;2023-07-16T07:15:22;9.82;;;4.13;;
74291;SDS011;62687;55.738;37.516;2023-07-16T07:18:12;9.32;;;4.80;;
74291;SDS011;62687;55.738;37.516;2023-07-16T07:20:59;7.88;;;4.32;;
74291;SDS011;62687;55.738;37.516;2023-07-16T07:23:50;10.70;;;4.40;;
74291;SDS011;62687;55.738;37.516;2023-07-16T07:26:58;8.65;;;4.40;;
74291;SDS011;62687;55.738;37.516;2023-07-16T07:29:45;6.78;;;4.10;;
74291;SDS011;62687;55.738;37.516;2023-07-16T07:32:41;6.75;;;3.88;;
74291;SDS011;62687;55.738;37.516;2023-07-16T07:35:30;6.07;;;3.67;;
74291;SDS011;62687;55.738;37.516;2023-07-16T07:38:16;6.22;;;3.80;;
74291;SDS011;62687;55.738;37.516;2023-07-16T07:41:04;8.02;;;3.63;;
74291;SDS011;62687;55.738;37.516;2023-07-16T07:43:51;11.48;;;3.85;;
74291;SDS011;62687;55.738;37.516;2023-07-16T07:46:37;7.25;;;3.90;;
74291;SDS011;62687;55.738;37.516;2023-07-16T07:49:25;6.65;;;3.80;;
74291;SDS011;62687;55.738;37.516;2023-07-16T07:52:12;5.28;;;3.55;;
74291;SDS011;62687;55.738;37.516;2023-07-16T07:55:01;5.88;;;3.63;;
74291;SDS011;62687;55.738;37.516;2023-07-16T07:57:48;5.65;;;3.42;;
74291;SDS011;62687;55.738;37.516;2023-07-16T08:00:35;8.18;;;3.70;;
74291;SDS011;62687;55.738;37.516;2023-07-16T08:03:22;6.30;;;3.35;;
74291;SDS011;62687;55.738;37.516;2023-07-16T08:06:06;6.88;;;3.55;;
74291;SDS011;62687;55.738;37.516;2023-07-16T08:08:50;6.75;;;3.53;;
74291;SDS011;62687;55.738;37.516;2023-07-16T08:11:34;10.13;;;3.83;;
74291;SDS011;62687;55.738;37.516;2023-07-16T08:14:18;5.25;;;3.78;;
74291;SDS011;62687;55.738;37.516;2023-07-16T08:17:02;6.25;;;3.15;;
74291;SDS011;62687;55.738;37.516;2023-07-16T08:19:46;4.90;;;3.60;;
74291;SDS011;62687;55.738;37.516;2023-07-16T08:22:30;9.95;;;3.63;;
74291;SDS011;62687;55.738;37.516;2023-07-16T08:25:13;9.20;;;3.33;;
74291;SDS011;62687;55.738;37.516;2023-07-16T08:27:57;8.50;;;3.72;;
74291;SDS011;62687;55.738;37.516;2023-07-16T08:30:41;5.20;;;3.03;;
74291;SDS011;62687;55.738;37.516;2023-07-16T08:33:25;7.53;;;2.70;;
74291;SDS011;62687;55.738;37.516;2023-07-16T08:36:09;8.10;;;3.53;;
74291;SDS011;62687;55.738;37.516;2023-07-16T08:38:54;5.80;;;3.25;;
74291;SDS011;62687;55.738;37.516;2023-07-16T08:41:38;5.78;;;3.03;;
74291;SDS011;62687;55.738;37.516;2023-07-16T08:44:22;4.57;;;2.95;;
74291;SDS011;62687;55.738;37.516;2023-07-16T08:47:06;6.15;;;3.13;;
74291;SDS011;62687;55.738;37.516;2023-07-16T08:49:54;5.70;;;3.17;;
74291;SDS011;62687;55.738;37.516;2023-07-16T08:52:39;5.93;;;3.17;;
74291;SDS011;62687;55.738;37.516;2023-07-16T08:55:23;9.07;;;2.97;;
74291;SDS011;62687;55.738;37.516;2023-07-16T08:58:07;6.47;;;3.25;;
74291;SDS011;62687;55.738;37.516;2023-07-16T09:00:51;6.75;;;3.25;;
74291;SDS011;62687;55.738;37.516;2023-07-16T09:03:35;7.82;;;3.20;;
74291;SDS011;62687;55.738;37.516;2023-07-16T09:06:19;5.40;;;3.22;;
74291;SDS011;62687;55.738;37.516;2023-07-16T09:09:03;5.28;;;3.20;;
74291;SDS011;62687;55.738;37.516;2023-07-16T09:11:47;6.03;;;2.97;;
74291;SDS011;62687;55.738;37.516;2023-07-16T09:14:32;5.88;;;3.03;;
74291;SDS011;62687;55.738;37.516;2023-07-16T09:17:20;4.53;;;2.65;;
74291;SDS011;62687;55.738;37.516;2023-07-16T09:20:04;5.75;;;2.90;;
74291;SDS011;62687;55.738;37.516;2023-07-16T09:22:54;5.60;;;2.70;;
74291;SDS011;62687;55.738;37.516;2023-07-16T09:25:39;4.72;;;2.67;;
74291;SDS011;62687;55.738;37.516;2023-07-16T09:28:24;6.75;;;2.95;;
74291;SDS011;62687;55.738;37.516;2023-07-16T09:31:08;4.55;;;2.88;;
74291;SDS011;62687;55.738;37.516;2023-07-16T09:33:52;3.70;;;2.50;;
74291;SDS011;62687;55.738;37.516;2023-07-16T09:36:38;5.95;;;2.70;;
74291;SDS011;62687;55.738;37.516;2023-07-16T09:39:22;10.68;;;3.03;;
74291;SDS011;62687;55.738;37.516;2023-07-16T09:42:06;6.07;;;3.10;;
74291;SDS011;62687;55.738;37.516;2023-07-16T09:44:50;7.90;;;2.72;;
74291;SDS011;62687;55.738;37.516;2023-07-16T09:47:37;5.10;;;2.78;;
74291;SDS011;62687;55.738;37.516;2023-07-16T09:50:24;6.32;;;3.10;;
74291;SDS011;62687;55.738;37.516;2023-07-16T09:53:10;5.10;;;2.60;;
74291;SDS011;62687;55.738;37.516;2023-07-16T09:55:55;4.13;;;2.70;;
74291;SDS011;62687;55.738;37.516;2023-07-16T09:58:39;5.85;;;2.67;;
74291;SDS011;62687;55.738;37.516;2023-07-16T10:01:23;5.85;;;2.75;;
74291;SDS011;62687;55.738;37.516;2023-07-16T10:04:14;4.95;;;2.90;;
74291;SDS011;62687;55.738;37.516;2023-07-16T10:06:58;5.55;;;3.00;;
74291;SDS011;62687;55.738;37.516;2023-07-16T10:09:50;4.78;;;2.70;;
74291;SDS011;62687;55.738;37.516;2023-07-16T10:12:34;4.20;;;2.60;;
74291;SDS011;62687;55.738;37.516;2023-07-16T10:18:03;2.95;;;2.40;;
74291;SDS011;62687;55.738;37.516;2023-07-16T10:20:47;4.85;;;2.22;;
74291;SDS011;62687;55.738;37.516;2023-07-16T10:26:15;4.05;;;2.58;;
74291;SDS011;62687;55.738;37.516;2023-07-16T10:28:59;8.02;;;2.50;;
74291;SDS011;62687;55.738;37.516;2023-07-16T10:31:43;5.10;;;2.58;;
74291;SDS011;62687;55.738;37.516;2023-07-16T10:34:28;3.97;;;2.25;;
74291;SDS011;62687;55.738;37.516;2023-07-16T10:37:12;4.00;;;2.22;;
74291;SDS011;62687;55.738;37.516;2023-07-16T10:39:58;6.28;;;2.20;;
74291;SDS011;62687;55.738;37.516;2023-07-16T10:42:42;3.38;;;2.25;;
74291;SDS011;62687;55.738;37.516;2023-07-16T10:48:16;6.50;;;2.88;;
74291;SDS011;62687;55.738;37.516;2023-07-16T10:51:00;6.88;;;2.50;;
74291;SDS011;62687;55.738;37.516;2023-07-16T10:53:44;3.88;;;2.30;;
74291;SDS011;62687;55.738;37.516;2023-07-16T10:56:28;3.10;;;1.95;;
74291;SDS011;62687;55.738;37.516;2023-07-16T10:59:12;5.13;;;2.00;;
74291;SDS011;62687;55.738;37.516;2023-07-16T11:04:40;5.68;;;2.80;;
74291;SDS011;62687;55.738;37.516;2023-07-16T11:10:08;5.40;;;2.42;;
74291;SDS011;62687;55.738;37.516;2023-07-16T11:12:53;6.45;;;2.85;;
74291;SDS011;62687;55.738;37.516;2023-07-16T11:15:37;8.88;;;3.15;;
74291;SDS011;62687;55.738;37.516;2023-07-16T11:18:23;4.05;;;2.55;;
74291;SDS011;62687;55.738;37.516;2023-07-16T11:21:10;3.97;;;2.40;;
74291;SDS011;62687;55.738;37.516;2023-07-16T11:23:54;4.18;;;2.70;;
74291;SDS011;62687;55.738;37.516;2023-07-16T11:26:39;6.93;;;2.58;;
74291;SDS011;62687;55.738;37.516;2023-07-16T11:29:23;4.35;;;2.67;;
74291;SDS011;62687;55.738;37.516;2023-07-16T11:32:07;4.60;;;2.40;;
74291;SDS011;62687;55.738;37.516;2023-07-16T11:34:52;5.13;;;2.45;;
74291;SDS011;62687;55.738;37.516;2023-07-16T11:37:36;7.05;;;2.58;;
74291;SDS011;62687;55.738;37.516;2023-07-16T11:40:20;8.48;;;2.40;;
74291;SDS011;62687;55.738;37.516;2023-07-16T11:43:10;6.60;;;2.67;;
74291;SDS011;62687;55.738;37.516;2023-07-16T11:45:55;6.60;;;2.55;;
74291;SDS011;62687;55.738;37.516;2023-07-16T11:48:39;7.65;;;2.83;;
74291;SDS011;62687;55.738;37.516;2023-07-16T11:51:23;4.10;;;2.30;;
74291;SDS011;62687;55.738;37.516;2023-07-16T11:54:07;4.40;;;2.22;;
74291;SDS011;62687;55.738;37.516;2023-07-16T11:56:52;6.20;;;2.40;;
74291;SDS011;62687;55.738;37.516;2023-07-16T11:59:36;3.08;;;2.25;;
74291;SDS011;62687;55.738;37.516;2023-07-16T12:02:20;8.95;;;2.65;;
74291;SDS011;62687;55.738;37.516;2023-07-16T12:05:05;4.53;;;1.92;;
74291;SDS011;62687;55.738;37.516;2023-07-16T12:07:50;4.70;;;2.42;;
74291;SDS011;62687;55.738;37.516;2023-07-16T12:10:34;5.93;;;3.50;;
74291;SDS011;62687;55.738;37.516;2023-07-16T12:13:18;4.60;;;2.78;;
74291;SDS011;62687;55.738;37.516;2023-07-16T12:16:02;6.03;;;3.03;;
74291;SDS011;62687;55.738;37.516;2023-07-16T12:18:46;4.65;;;2.28;;
74291;SDS011;62687;55.738;37.516;2023-07-16T12:21:30;4.72;;;2.70;;
74291;SDS011;62687;55.738;37.516;2023-07-16T12:24:15;4.38;;;2.42;;
74291;SDS011;62687;55.738;37.516;2023-07-16T12:26:59;5.25;;;2.38;;
74291;SDS011;62687;55.738;37.516;2023-07-16T12:32:27;7.45;;;2.30;;
74291;SDS011;62687;55.738;37.516;2023-07-16T12:35:11;9.15;;;3.55;;
74291;SDS011;62687;55.738;37.516;2023-07-16T12:37:56;4.57;;;2.80;;
74291;SDS011;62687;55.738;37.516;2023-07-16T12:40:41;5.57;;;3.03;;
74291;SDS011;62687;55.738;37.516;2023-07-16T12:43:26;5.50;;;2.60;;
74291;SDS011;62687;55.738;37.516;2023-07-16T12:46:10;4.80;;;2.72;;
74291;SDS011;62687;55.738;37.516;2023-07-16T12:48:55;7.07;;;3.20;;
74291;SDS011;62687;55.738;37.516;2023-07-16T12:51:39;6.22;;;3.65;;
74291;SDS011;62687;55.738;37.516;2023-07-16T12:54:24;6.68;;;3.33;;
74291;SDS011;62687;55.738;37.516;2023-07-16T12:57:08;8.00;;;3.00;;
74291;SDS011;62687;55.738;37.516;2023-07-16T12:59:52;6.15;;;3.42;;
74291;SDS011;62687;55.738;37.516;2023-07-16T13:02:36;6.95;;;3.03;;
74291;SDS011;62687;55.738;37.516;2023-07-16T13:05:21;9.38;;;4.28;;
74291;SDS011;62687;55.738;37.516;2023-07-16T13:08:06;4.03;;;2.67;;
74291;SDS011;62687;55.738;37.516;2023-07-16T13:10:50;4.60;;;2.80;;
74291;SDS011;62687;55.738;37.516;2023-07-16T13:13:35;6.32;;;3.05;;
74291;SDS011;62687;55.738;37.516;2023-07-16T13:16:20;5.35;;;2.45;;
74291;SDS011;62687;55.738;37.516;2023-07-16T13:19:03;6.10;;;2.60;;
74291;SDS011;62687;55.738;37.516;2023-07-16T13:21:47;7.47;;;2.55;;
74291;SDS011;62687;55.738;37.516;2023-07-16T13:24:31;6.72;;;2.70;;
74291;SDS011;62687;55.738;37.516;2023-07-16T13:27:19;8.40;;;3.80;;
74291;SDS011;62687;55.738;37.516;2023-07-16T13:30:03;4.65;;;2.90;;
74291;SDS011;62687;55.738;37.516;2023-07-16T13:32:48;4.88;;;2.65;;
74291;SDS011;62687;55.738;37.516;2023-07-16T13:35:32;4.20;;;2.63;;
74291;SDS011;62687;55.738;37.516;2023-07-16T13:41:00;4.55;;;2.33;;
74291;SDS011;62687;55.738;37.516;2023-07-16T13:43:44;5.82;;;3.17;;
74291;SDS011;62687;55.738;37.516;2023-07-16T13:46:28;4.72;;;3.50;;
74291;SDS011;62687;55.738;37.516;2023-07-16T13:49:12;7.90;;;3.40;;
74291;SDS011;62687;55.738;37.516;2023-07-16T13:51:57;5.43;;;2.92;;
74291;SDS011;62687;55.738;37.516;2023-07-16T13:54:41;6.72;;;2.85;;
74291;SDS011;62687;55.738;37.516;2023-07-16T13:57:25;5.70;;;2.78;;
74291;SDS011;62687;55.738;37.516;2023-07-16T14:02:53;6.72;;;3.05;;
74291;SDS011;62687;55.738;37.516;2023-07-16T14:05:37;7.55;;;3.00;;
74291;SDS011;62687;55.738;37.516;2023-07-16T14:08:22;4.10;;;2.97;;
74291;SDS011;62687;55.738;37.516;2023-07-16T14:11:06;7.13;;;2.90;;
74291;SDS011;62687;55.738;37.516;2023-07-16T14:13:51;7.78;;;3.90;;
74291;SDS011;62687;55.738;37.516;2023-07-16T14:16:35;5.80;;;2.90;;
74291;SDS011;62687;55.738;37.516;2023-07-16T14:19:19;5.88;;;3.88;;
74291;SDS011;62687;55.738;37.516;2023-07-16T14:22:03;6.00;;;4.03;;
74291;SDS011;62687;55.738;37.516;2023-07-16T14:24:48;9.23;;;3.22;;
74291;SDS011;62687;55.738;37.516;2023-07-16T14:27:34;4.63;;;2.85;;
74291;SDS011;62687;55.738;37.516;2023-07-16T14:30:19;7.55;;;3.05;;
74291;SDS011;62687;55.738;37.516;2023-07-16T14:33:04;6.05;;;3.42;;
74291;SDS011;62687;55.738;37.516;2023-07-16T14:35:48;7.78;;;2.35;;
74291;SDS011;62687;55.738;37.516;2023-07-16T14:38:32;7.05;;;3.22;;
74291;SDS011;62687;55.738;37.516;2023-07-16T14:41:17;5.25;;;2.85;;
74291;SDS011;62687;55.738;37.516;2023-07-16T14:44:01;9.73;;;2.58;;
74291;SDS011;62687;55.738;37.516;2023-07-16T14:46:47;5.38;;;3.20;;
74291;SDS011;62687;55.738;37.516;2023-07-16T14:49:31;8.48;;;2.70;;
74291;SDS011;62687;55.738;37.516;2023-07-16T14:52:16;4.72;;;2.67;;
74291;SDS011;62687;55.738;37.516;2023-07-16T14:55:00;5.85;;;2.92;;
74291;SDS011;62687;55.738;37.516;2023-07-16T14:57:44;4.15;;;2.75;;
74291;SDS011;62687;55.738;37.516;2023-07-16T15:00:28;4.80;;;2.67;;
74291;SDS011;62687;55.738;37.516;2023-07-16T15:03:13;4.32;;;2.50;;
74291;SDS011;62687;55.738;37.516;2023-07-16T15:05:58;5.10;;;2.88;;
74291;SDS011;62687;55.738;37.516;2023-07-16T15:08:42;5.78;;;2.80;;
74291;SDS011;62687;55.738;37.516;2023-07-16T15:11:26;5.63;;;2.58;;
74291;SDS011;62687;55.738;37.516;2023-07-16T15:14:11;4.53;;;2.60;;
74291;SDS011;62687;55.738;37.516;2023-07-16T15:16:56;5.22;;;2.72;;
74291;SDS011;62687;55.738;37.516;2023-07-16T15:19:40;7.82;;;2.13;;
74291;SDS011;62687;55.738;37.516;2023-07-16T15:22:25;5.85;;;2.80;;
74291;SDS011;62687;55.738;37.516;2023-07-16T15:25:09;5.60;;;2.40;;
74291;SDS011;62687;55.738;37.516;2023-07-16T15:27:53;9.75;;;2.60;;
74291;SDS011;62687;55.738;37.516;2023-07-16T15:30:37;3.28;;;2.25;;
74291;SDS011;62687;55.738;37.516;2023-07-16T15:33:21;4.88;;;2.22;;
74291;SDS011;62687;55.738;37.516;2023-07-16T15:36:05;4.82;;;2.08;;
74291;SDS011;62687;55.738;37.516;2023-07-16T15:38:49;6.25;;;2.17;;
74291;SDS011;62687;55.738;37.516;2023-07-16T15:44:16;6.13;;;2.80;;
74291;SDS011;62687;55.738;37.516;2023-07-16T15:47:01;6.78;;;2.13;;
74291;SDS011;62687;55.738;37.516;2023-07-16T15:49:44;5.43;;;2.42;;
74291;SDS011;62687;55.738;37.516;2023-07-16T15:52:28;5.60;;;2.45;;
74291;SDS011;62687;55.738;37.516;2023-07-16T15:55:12;8.88;;;2.55;;
74291;SDS011;62687;55.738;37.516;2023-07-16T15:57:57;4.50;;;2.40;;
74291;SDS011;62687;55.738;37.516;2023-07-16T16:00:41;4.93;;;2.55;;
74291;SDS011;62687;55.738;37.516;2023-07-16T16:03:25;5.45;;;2.30;;
74291;SDS011;62687;55.738;37.516;2023-07-16T16:06:09;3.60;;;2.22;;
74291;SDS011;62687;55.738;37.516;2023-07-16T16:08:53;6.18;;;2.58;;
74291;SDS011;62687;55.738;37.516;2023-07-16T16:11:37;4.32;;;2.78;;
74291;SDS011;62687;55.738;37.516;2023-07-16T16:14:22;5.88;;;2.95;;
74291;SDS011;62687;55.738;37.516;2023-07-16T16:17:06;8.73;;;2.40;;
74291;SDS011;62687;55.738;37.516;2023-07-16T16:19:50;6.43;;;2.85;;
74291;SDS011;62687;55.738;37.516;2023-07-16T16:22:34;4.50;;;2.50;;
74291;SDS011;62687;55.738;37.516;2023-07-16T16:25:18;5.50;;;2.90;;
74291;SDS011;62687;55.738;37.516;2023-07-16T16:28:02;5.50;;;2.20;;
74291;SDS011;62687;55.738;37.516;2023-07-16T16:30:50;7.00;;;2.90;;
74291;SDS011;62687;55.738;37.516;2023-07-16T16:36:18;5.15;;;3.28;;
74291;SDS011;62687;55.738;37.516;2023-07-16T16:39:02;6.47;;;3.17;;
74291;SDS011;62687;55.738;37.516;2023-07-16T16:41:46;7.70;;;2.92;;
74291;SDS011;62687;55.738;37.516;2023-07-16T16:44:31;5.55;;;2.95;;
74291;SDS011;62687;55.738;37.516;2023-07-16T16:47:15;7.13;;;2.92;;
74291;SDS011;62687;55.738;37.516;2023-07-16T16:49:59;8.90;;;2.78;;
74291;SDS011;62687;55.738;37.516;2023-07-16T16:52:43;3.72;;;2.88;;
74291;SDS011;62687;55.738;37.516;2023-07-16T16:55:27;8.55;;;3.38;;
74291;SDS011;62687;55.738;37.516;2023-07-16T16:58:11;6.65;;;3.13;;
74291;SDS011;62687;55.738;37.516;2023-07-16T17:00:55;5.53;;;3.30;;
74291;SDS011;62687;55.738;37.516;2023-07-16T17:03:39;6.00;;;3.15;;
74291;SDS011;62687;55.738;37.516;2023-07-16T17:06:23;9.73;;;3.78;;
74291;SDS011;62687;55.738;37.516;2023-07-16T17:09:07;10.55;;;4.13;;